Time;durP1;ratioP1;P1;durP2;ratioP2;P2;SDS_P1;SDS_P2;PMS_P1;PMS_P2;Temp;Humidity;BMP_temperature;BMP_pressure;BME280_temperature;BME280_humidity;BME280_pressure;Samples;Min_cycle;Max_cycle;Signal;HPM_P1;HPM_P2
2023/11/21 00:00:14;;;;;;;;;;;;;;;7.89;54.69;94813.91;4978932;28;19996;-77
2023/11/21 00:02:40;;;;;;;;;;;;;;;8.01;54.61;94818.78;4982345;28;20281;-76
2023/11/21 00:05:09;;;;;;;;;;;;;;;7.93;52.91;94817.06;4977510;28;19922;-77
2023/11/21 00:07:35;;;;;;;;;;;;;;;7.86;53.22;94813.47;4972741;28;20039;-77
2023/11/21 00:10:00;;;;;;;;;;;;;;;7.65;52.50;94812.31;4979950;28;19976;-78
2023/11/21 00:12:25;;;;;;;;;;;;;;;7.52;54.48;94818.22;4978772;28;19925;-77
2023/11/21 00:14:50;;;;;;;;;;;;;;;7.11;55.77;94822.00;4972343;28;19978;-76
2023/11/21 00:17:16;;;;;;;;;;;;;;;7.25;56.22;94815.91;4977951;28;20347;-76
2023/11/21 00:19:42;;;;;;;;;;;;;;;7.48;55.01;94809.78;4973753;28;19926;-75
2023/11/21 00:22:08;;;;;;;;;;;;;;;7.63;55.41;94809.00;4975279;28;20020;-77
2023/11/21 00:24:34;;;;;;;;;;;;;;;7.76;55.21;94811.06;4978370;28;19936;-77
2023/11/21 00:26:59;;;;;;;;;;;;;;;7.72;53.92;94815.88;4975754;28;20641;-77
2023/11/21 00:29:24;;;;;;;;;;;;;;;7.74;54.38;94816.53;4976637;28;20027;-77
2023/11/21 00:31:50;;;;;;;;;;;;;;;7.74;55.25;94818.34;4978131;28;19933;-76
2023/11/21 00:34:15;;;;;;;;;;;;;;;7.74;54.32;94815.69;4974942;28;20413;-76
2023/11/21 00:36:40;;;;;;;;;;;;;;;7.77;54.28;94821.50;4978887;28;19941;-77
2023/11/21 00:39:06;;;;;;;;;;;;;;;7.65;54.10;94812.31;4968718;28;19938;-76
2023/11/21 00:41:31;;;;;;;;;;;;;;;7.38;52.57;94817.16;4974906;28;19921;-76
2023/11/21 00:43:56;;;;;;;;;;;;;;;7.39;54.98;94816.16;4978787;28;19926;-76
2023/11/21 00:46:24;;;;;;;;;;;;;;;7.38;55.23;94825.91;4972332;28;20906;-77
2023/11/21 00:48:49;;;;;;;;;;;;;;;7.41;54.72;94822.09;4974636;28;20052;-76
2023/11/21 00:51:14;;;;;;;;;;;;;;;7.44;55.74;94824.38;4977917;28;20417;-77
2023/11/21 00:53:39;;;;;;;;;;;;;;;7.41;55.85;94828.22;4975801;28;19925;-77
2023/11/21 00:56:05;;;;;;;;;;;;;;;7.39;55.29;94821.47;4977381;28;19968;-76
2023/11/21 00:58:30;;;;;;;;;;;;;;;7.37;54.37;94824.28;4976085;28;19933;-77
2023/11/21 01:00:55;;;;;;;;;;;;;;;7.38;54.90;94817.16;4975309;28;20674;-76
2023/11/21 01:03:21;;;;;;;;;;;;;;;7.42;55.12;94826.41;4973937;28;20456;-77
2023/11/21 01:05:46;;;;;;;;;;;;;;;7.48;54.89;94825.69;4977030;28;20410;-77
2023/11/21 01:08:12;;;;;;;;;;;;;;;7.36;52.52;94832.41;4977120;28;19917;-76
2023/11/21 01:10:37;;;;;;;;;;;;;;;7.33;53.75;94827.44;4978039;28;19926;-76
2023/11/21 01:13:05;;;;;;;;;;;;;;;7.33;55.26;94830.09;4977447;28;20657;-77
2023/11/21 01:15:30;;;;;;;;;;;;;;;7.25;53.21;94834.44;4972451;28;19921;-77
2023/11/21 01:17:56;;;;;;;;;;;;;;;7.30;55.00;94843.69;4976289;28;20450;-76
2023/11/21 01:20:21;;;;;;;;;;;;;;;7.22;53.81;94850.72;4973026;28;20307;-77
2023/11/21 01:22:48;;;;;;;;;;;;;;;7.21;55.38;94850.88;4977570;28;19918;-77
2023/11/21 01:25:14;;;;;;;;;;;;;;;7.26;55.10;94851.16;4977555;28;19922;-77
2023/11/21 01:27:39;;;;;;;;;;;;;;;7.30;55.17;94851.63;4981553;28;20520;-77
2023/11/21 01:30:06;;;;;;;;;;;;;;;7.24;52.04;94858.47;4981227;28;20457;-77
2023/11/21 01:32:32;;;;;;;;;;;;;;;7.22;54.13;94861.28;4981815;28;19921;-76
2023/11/21 01:34:57;;;;;;;;;;;;;;;7.13;55.43;94851.75;4977626;28;19933;-77
2023/11/21 01:37:22;;;;;;;;;;;;;;;7.04;54.01;94861.53;4981501;28;19930;-79
2023/11/21 01:39:48;;;;;;;;;;;;;;;6.09;52.93;94866.69;4982309;28;19922;-81
2023/11/21 01:42:14;;;;;;;;;;;;;;;5.52;54.28;94868.38;4979024;28;20334;-76
2023/11/21 01:44:39;;;;;;;;;;;;;;;5.95;57.97;94876.13;4983718;28;19925;-77
2023/11/21 01:47:07;;;;;;;;;;;;;;;6.15;55.29;94870.47;4981169;28;20219;-78
2023/11/21 01:49:33;;;;;;;;;;;;;;;6.17;54.02;94871.94;4976314;28;19921;-79
2023/11/21 01:51:58;;;;;;;;;;;;;;;6.35;55.71;94868.25;4979353;28;19976;-80
2023/11/21 01:54:23;;;;;;;;;;;;;;;5.98;52.40;94873.13;4979160;28;19922;-78
2023/11/21 01:56:49;;;;;;;;;;;;;;;5.90;53.17;94878.44;4980001;28;19930;-80
2023/11/21 01:59:16;;;;;;;;;;;;;;;5.92;53.44;94879.09;4968120;28;19926;-81
2023/11/21 02:01:41;;;;;;;;;;;;;;;6.10;55.94;94876.25;4975446;28;19949;-77
2023/11/21 02:04:08;;;;;;;;;;;;;;;6.25;57.48;94871.94;4979461;28;19976;-78
2023/11/21 02:06:34;;;;;;;;;;;;;;;6.34;54.97;94874.56;4979878;28;19922;-79
2023/11/21 02:08:59;;;;;;;;;;;;;;;6.42;55.44;94876.34;4977371;28;19967;-81
2023/11/21 02:11:25;;;;;;;;;;;;;;;6.41;54.84;94875.53;4977482;28;20364;-77
2023/11/21 02:13:53;;;;;;;;;;;;;;;6.37;55.72;94875.03;4980361;28;20346;-80
2023/11/21 02:16:19;;;;;;;;;;;;;;;6.38;56.13;94870.56;4980317;28;19949;-78
2023/11/21 02:18:44;;;;;;;;;;;;;;;6.36;54.98;94877.88;4974171;28;20562;-78
2023/11/21 02:21:10;;;;;;;;;;;;;;;6.34;56.04;94871.91;4980800;28;19973;-77
2023/11/21 02:23:35;;;;;;;;;;;;;;;6.31;56.22;94886.28;4975457;28;19957;-77
2023/11/21 02:26:04;;;;;;;;;;;;;;;6.27;55.74;94884.97;4979230;28;19930;-80
2023/11/21 02:28:29;;;;;;;;;;;;;;;6.17;53.51;94871.94;4976884;28;20563;-77
2023/11/21 02:30:59;;;;;;;;;;;;;;;6.17;54.74;94879.03;4973008;28;19973;-79
2023/11/21 02:33:24;;;;;;;;;;;;;;;6.15;56.15;94891.63;4976033;28;20469;-77
2023/11/21 02:35:49;;;;;;;;;;;;;;;6.06;52.99;94888.16;4979068;28;19930;-79
2023/11/21 02:38:15;;;;;;;;;;;;;;;5.86;54.87;94899.06;4978171;28;20319;-78
2023/11/21 02:40:41;;;;;;;;;;;;;;;5.75;56.26;94892.31;4978123;28;19917;-80
2023/11/21 02:43:06;;;;;;;;;;;;;;;5.58;56.91;94902.84;4976303;28;19955;-80
2023/11/21 02:45:32;;;;;;;;;;;;;;;5.61;57.03;94906.97;4982105;28;19932;-77
2023/11/21 02:47:57;;;;;;;;;;;;;;;5.60;55.79;94900.06;4973034;28;19929;-77
2023/11/21 02:50:22;;;;;;;;;;;;;;;5.68;57.78;94893.97;4979051;28;20386;-77
2023/11/21 02:52:48;;;;;;;;;;;;;;;5.70;58.20;94894.63;4977928;28;20306;-77
2023/11/21 02:55:13;;;;;;;;;;;;;;;5.67;57.07;94895.78;4977917;28;19933;-76
2023/11/21 02:57:38;;;;;;;;;;;;;;;5.65;57.12;94903.06;4979040;28;19932;-76
2023/11/21 03:00:07;;;;;;;;;;;;;;;5.61;57.09;94899.91;4977006;28;20391;-76
2023/11/21 03:02:32;;;;;;;;;;;;;;;5.53;54.93;94899.91;4978133;28;19926;-76
2023/11/21 03:04:57;;;;;;;;;;;;;;;5.54;58.10;94900.72;4978143;28;19929;-77
2023/11/21 03:07:23;;;;;;;;;;;;;;;5.50;57.91;94904.69;4960831;28;19945;-76
2023/11/21 03:09:48;;;;;;;;;;;;;;;5.42;57.18;94905.50;4975047;28;19918;-77
2023/11/21 03:12:13;;;;;;;;;;;;;;;5.33;57.09;94905.47;4977039;28;20025;-76
2023/11/21 03:14:39;;;;;;;;;;;;;;;5.22;57.68;94903.97;4976300;28;20275;-76
2023/11/21 03:17:04;;;;;;;;;;;;;;;5.17;58.27;94906.25;4978143;28;20002;-76
2023/11/21 03:19:30;;;;;;;;;;;;;;;5.11;58.05;94908.72;4975981;28;20020;-76
2023/11/21 03:21:55;;;;;;;;;;;;;;;5.04;58.09;94913.78;4977313;28;19925;-76
2023/11/21 03:24:22;;;;;;;;;;;;;;;5.00;58.29;94920.38;4977581;28;20634;-76
2023/11/21 03:26:47;;;;;;;;;;;;;;;4.96;58.25;94912.78;4974596;28;19932;-76
2023/11/21 03:29:13;;;;;;;;;;;;;;;4.96;59.29;94920.69;4975539;28;19925;-76
2023/11/21 03:31:38;;;;;;;;;;;;;;;4.93;58.57;94921.00;4974797;28;19927;-76
2023/11/21 03:34:04;;;;;;;;;;;;;;;4.84;59.31;94916.69;4978874;28;19926;-76
2023/11/21 03:36:29;;;;;;;;;;;;;;;4.79;58.15;94918.97;4973755;28;19969;-76
2023/11/21 03:38:55;;;;;;;;;;;;;;;4.71;58.55;94927.69;4977311;28;20551;-77
2023/11/21 03:41:20;;;;;;;;;;;;;;;4.65;58.18;94923.88;4974051;28;20009;-76
2023/11/21 03:43:45;;;;;;;;;;;;;;;4.61;59.39;94929.59;4978329;28;20577;-75
2023/11/21 03:46:12;;;;;;;;;;;;;;;4.56;59.71;94923.00;4978552;28;19933;-76
2023/11/21 03:48:37;;;;;;;;;;;;;;;4.53;60.15;94918.03;4978956;28;20374;-77
2023/11/21 03:51:03;;;;;;;;;;;;;;;4.50;61.38;94935.97;4976934;28;19973;-77
2023/11/21 03:53:28;;;;;;;;;;;;;;;4.48;61.14;94938.78;4978662;28;19922;-76
2023/11/21 03:55:53;;;;;;;;;;;;;;;4.45;60.60;94939.09;4976388;28;19941;-77
2023/11/21 03:58:19;;;;;;;;;;;;;;;4.33;58.40;94947.25;4978828;28;20006;-77
2023/11/21 04:00:44;;;;;;;;;;;;;;;4.29;59.38;94955.63;4976602;28;20752;-76
2023/11/21 04:03:09;;;;;;;;;;;;;;;4.31;58.58;94957.13;4974942;28;19926;-76
2023/11/21 04:05:34;;;;;;;;;;;;;;;4.18;57.11;94957.53;4969834;28;19933;-76
2023/11/21 04:08:00;;;;;;;;;;;;;;;3.97;57.60;94960.50;4970264;28;19961;-77
2023/11/21 04:10:25;;;;;;;;;;;;;;;3.96;58.01;94965.94;4978402;28;19926;-76
2023/11/21 04:12:50;;;;;;;;;;;;;;;3.76;58.34;94961.66;4976710;28;19933;-66
2023/11/21 04:15:15;;;;;;;;;;;;;;;3.63;58.57;94966.47;4979574;28;20020;-66
2023/11/21 04:17:41;;;;;;;;;;;;;;;3.36;59.57;94966.34;4981610;28;19984;-65
2023/11/21 04:20:09;;;;;;;;;;;;;;;3.16;59.71;94978.78;4981731;28;19925;-66
2023/11/21 04:22:41;;;;;;;;;;;;;;;2.93;61.05;94979.22;4984642;28;19925;-65
2023/11/21 04:25:13;;;;;;;;;;;;;;;2.90;61.85;94972.41;4981812;28;20699;-64
2023/11/21 04:27:39;;;;;;;;;;;;;;;3.10;62.10;94972.31;4977770;28;19932;-67
2023/11/21 04:30:05;;;;;;;;;;;;;;;3.24;64.29;94972.81;4975471;28;20343;-66
2023/11/21 04:32:30;;;;;;;;;;;;;;;3.78;64.46;94980.75;4979300;28;19937;-64
2023/11/21 04:34:55;;;;;;;;;;;;;;;3.98;63.55;94987.69;4974234;28;19952;-67
2023/11/21 04:37:21;;;;;;;;;;;;;;;3.96;62.22;94987.84;4978276;28;20002;-66
2023/11/21 04:39:46;;;;;;;;;;;;;;;4.26;62.98;94996.31;4979905;28;19949;-66
2023/11/21 04:42:12;;;;;;;;;;;;;;;3.93;60.82;94994.25;4984934;28;19925;-66
2023/11/21 04:44:37;;;;;;;;;;;;;;;4.16;62.23;94998.19;4979210;28;19926;-67
2023/11/21 04:47:04;;;;;;;;;;;;;;;3.97;60.60;95000.00;4978708;28;20124;-66
2023/11/21 04:49:29;;;;;;;;;;;;;;;3.98;61.91;95000.84;4977042;28;19926;-66
2023/11/21 04:51:55;;;;;;;;;;;;;;;3.94;61.61;95003.78;4977534;28;19922;-65
2023/11/21 04:54:20;;;;;;;;;;;;;;;3.68;62.17;95012.44;4977454;28;19926;-65
2023/11/21 04:56:45;;;;;;;;;;;;;;;4.15;61.76;95007.09;4981751;28;20502;-66
2023/11/21 04:59:10;;;;;;;;;;;;;;;4.11;62.56;95011.00;4985133;28;19964;-66
2023/11/21 05:01:36;;;;;;;;;;;;;;;4.06;60.23;95014.09;4987139;28;20407;-66
2023/11/21 05:04:01;;;;;;;;;;;;;;;4.07;61.29;95021.00;4990745;28;20429;-66
2023/11/21 05:06:26;;;;;;;;;;;;;;;4.14;62.90;95022.06;4984849;28;19926;-66
2023/11/21 05:08:52;;;;;;;;;;;;;;;4.12;60.56;95028.47;4981989;28;19921;-65
2023/11/21 05:11:26;;;;;;;;;;;;;;;4.22;60.89;95029.19;4980465;28;19956;-66
2023/11/21 05:13:51;;;;;;;;;;;;;;;3.66;60.76;95024.94;4976764;28;19933;-64
2023/11/21 05:16:17;;;;;;;;;;;;;;;3.97;62.61;95029.00;4979098;28;19929;-65
2023/11/21 05:18:42;;;;;;;;;;;;;;;4.43;62.56;95035.97;4982054;28;19926;-64
2023/11/21 05:21:07;;;;;;;;;;;;;;;4.59;61.24;95037.84;4985516;28;19926;-65
2023/11/21 05:23:33;;;;;;;;;;;;;;;4.28;63.22;95043.56;4991133;28;20594;-66
2023/11/21 05:25:59;;;;;;;;;;;;;;;4.63;62.73;95044.47;4983893;28;20012;-65
2023/11/21 05:28:24;;;;;;;;;;;;;;;4.17;60.51;95042.84;4981349;28;20036;-66
2023/11/21 05:30:50;;;;;;;;;;;;;;;4.18;62.03;95043.66;4979238;28;19937;-66
2023/11/21 05:33:15;;;;;;;;;;;;;;;4.44;61.13;95045.50;4981731;28;19924;-66
2023/11/21 05:35:40;;;;;;;;;;;;;;;4.81;60.07;95043.63;4983476;28;20016;-65
2023/11/21 05:38:05;;;;;;;;;;;;;;;4.99;60.00;95050.66;4982937;28;19969;-65
2023/11/21 05:40:31;;;;;;;;;;;;;;;5.01;58.21;95053.94;4986248;28;19922;-66
2023/11/21 05:42:56;;;;;;;;;;;;;;;4.48;59.88;95049.50;4980300;28;19971;-63
2023/11/21 05:45:21;;;;;;;;;;;;;;;4.58;60.92;95054.66;4982077;28;20024;-66
2023/11/21 05:47:47;;;;;;;;;;;;;;;4.90;60.75;95062.97;4987457;28;20642;-65
2023/11/21 05:50:14;;;;;;;;;;;;;;;4.89;58.27;95051.56;4982820;28;19947;-66
2023/11/21 05:52:39;;;;;;;;;;;;;;;4.86;59.81;95058.97;4980529;28;19925;-66
2023/11/21 05:55:07;;;;;;;;;;;;;;;4.69;60.57;95050.94;4982184;28;19960;-64
2023/11/21 05:57:32;;;;;;;;;;;;;;;4.48;58.65;95053.94;4977974;28;19925;-65
2023/11/21 05:59:58;;;;;;;;;;;;;;;4.45;60.81;95057.69;4979746;28;19932;-65
2023/11/21 06:02:23;;;;;;;;;;;;;;;5.03;61.81;95063.34;4986283;28;19933;-64
2023/11/21 06:04:48;;;;;;;;;;;;;;;5.24;57.67;95064.81;4981480;28;19926;-64
2023/11/21 06:07:14;;;;;;;;;;;;;;;5.42;57.43;95062.09;4981002;28;20719;-66
2023/11/21 06:09:39;;;;;;;;;;;;;;;5.51;57.17;95065.56;4981586;28;20291;-66
2023/11/21 06:12:05;;;;;;;;;;;;;;;5.19;56.81;95078.47;4984741;28;19926;-65
2023/11/21 06:14:33;;;;;;;;;;;;;;;5.07;57.73;95079.75;4978982;28;20340;-66
2023/11/21 06:16:58;;;;;;;;;;;;;;;5.14;58.90;95090.50;4978896;28;19934;-66
2023/11/21 06:19:23;;;;;;;;;;;;;;;5.42;60.13;95095.56;4979305;28;19987;-65
2023/11/21 06:21:49;;;;;;;;;;;;;;;5.67;58.43;95112.34;4978531;28;19925;-66
2023/11/21 06:24:15;;;;;;;;;;;;;;;5.60;56.72;95111.31;4981918;28;19937;-66
2023/11/21 06:26:41;;;;;;;;;;;;;;;5.44;57.43;95118.19;4978176;28;19937;-66
2023/11/21 06:29:06;;;;;;;;;;;;;;;4.29;60.07;95119.03;4982178;28;19921;-65
2023/11/21 06:31:32;;;;;;;;;;;;;;;5.00;61.89;95119.06;4976559;28;20343;-66
2023/11/21 06:33:59;;;;;;;;;;;;;;;5.21;58.54;95110.00;4984692;28;19926;-66
2023/11/21 06:36:24;;;;;;;;;;;;;;;5.00;58.15;95108.50;4979956;28;19926;-66
2023/11/21 06:38:50;;;;;;;;;;;;;;;4.74;60.05;95114.63;4972566;28;19976;-66
2023/11/21 06:41:15;;;;;;;;;;;;;;;4.76;59.11;95123.19;4976888;28;20283;-66
2023/11/21 06:43:41;;;;;;;;;;;;;;;5.05;61.83;95123.88;4979056;28;19925;-65
2023/11/21 06:46:06;;;;;;;;;;;;;;;5.37;59.67;95125.09;4978545;28;19949;-65
2023/11/21 06:48:31;;;;;;;;;;;;;;;5.64;59.53;95132.97;4979629;28;19921;-66
2023/11/21 06:50:56;;;;;;;;;;;;;;;5.93;59.62;95126.47;4979385;28;20067;-66
2023/11/21 06:53:22;;;;;;;;;;;;;;;5.67;56.69;95132.63;4975726;28;19929;-65
2023/11/21 06:55:47;;;;;;;;;;;;;;;6.01;56.22;95130.97;4978956;28;20114;-66
2023/11/21 06:58:14;;;;;;;;;;;;;;;5.90;55.40;95137.34;4984416;28;19933;-66
2023/11/21 07:00:39;;;;;;;;;;;;;;;5.84;57.94;95149.38;4982420;28;20327;-65
2023/11/21 07:03:04;;;;;;;;;;;;;;;5.95;56.10;95141.16;4970713;28;20315;-66
2023/11/21 07:05:30;;;;;;;;;;;;;;;6.06;57.79;95141.88;4982640;28;19926;-65
2023/11/21 07:07:55;;;;;;;;;;;;;;;5.74;59.05;95154.78;4981142;28;20492;-66
2023/11/21 07:10:20;;;;;;;;;;;;;;;6.03;59.80;95148.31;4986844;28;19934;-66
2023/11/21 07:12:46;;;;;;;;;;;;;;;6.22;55.37;95146.34;4981547;28;19948;-65
2023/11/21 07:15:11;;;;;;;;;;;;;;;6.34;57.34;95157.44;4979098;28;20014;-65
2023/11/21 07:17:37;;;;;;;;;;;;;;;6.35;55.30;95157.28;4978864;28;20672;-65
2023/11/21 07:20:02;;;;;;;;;;;;;;;6.18;55.82;95164.34;4981265;28;19922;-65
2023/11/21 07:22:28;;;;;;;;;;;;;;;6.33;57.01;95161.91;4978419;28;19953;-65
2023/11/21 07:24:53;;;;;;;;;;;;;;;6.34;57.65;95179.44;4978923;28;19922;-66
2023/11/21 07:27:18;;;;;;;;;;;;;;;6.41;58.03;95181.41;4978063;28;20418;-66
2023/11/21 07:29:44;;;;;;;;;;;;;;;6.50;56.32;95183.13;4977955;28;19922;-65
2023/11/21 07:32:09;;;;;;;;;;;;;;;6.16;58.96;95192.78;4978456;28;19921;-66
2023/11/21 07:34:34;;;;;;;;;;;;;;;6.38;59.35;95188.69;4976734;28;19933;-66
2023/11/21 07:37:00;;;;;;;;;;;;;;;6.42;57.19;95189.19;4976578;28;19981;-66
2023/11/21 07:39:25;;;;;;;;;;;;;;;6.56;58.41;95200.97;4978225;28;19937;-64
2023/11/21 07:41:50;;;;;;;;;;;;;;;6.33;54.15;95201.56;4978334;28;20443;-66
2023/11/21 07:44:16;;;;;;;;;;;;;;;6.47;57.11;95204.59;4983639;28;19925;-66
2023/11/21 07:46:42;;;;;;;;;;;;;;;6.37;54.05;95199.44;4982400;28;20272;-65
2023/11/21 07:49:07;;;;;;;;;;;;;;;6.38;55.39;95209.00;4978773;28;19977;-63
2023/11/21 07:51:32;;;;;;;;;;;;;;;6.56;56.57;95205.47;4977403;28;20497;-66
2023/11/21 07:53:57;;;;;;;;;;;;;;;6.52;54.29;95217.38;4979567;28;19960;-67
2023/11/21 07:56:22;;;;;;;;;;;;;;;6.49;54.98;95216.69;4979757;28;19969;-64
2023/11/21 07:58:48;;;;;;;;;;;;;;;6.45;55.41;95223.25;4980259;28;20029;-66
2023/11/21 08:01:15;;;;;;;;;;;;;;;5.70;55.94;95219.50;4977046;28;20519;-65
2023/11/21 08:03:40;;;;;;;;;;;;;;;6.02;57.50;95230.38;4981389;28;19929;-66
2023/11/21 08:06:05;;;;;;;;;;;;;;;6.47;57.38;95226.53;4977906;28;19932;-65
2023/11/21 08:08:32;;;;;;;;;;;;;;;6.56;55.54;95230.06;4980553;28;20213;-64
2023/11/21 08:10:57;;;;;;;;;;;;;;;6.42;53.38;95231.50;4978315;28;20016;-66
2023/11/21 08:13:25;;;;;;;;;;;;;;;6.31;57.98;95240.56;4977074;28;20008;-67
2023/11/21 08:15:50;;;;;;;;;;;;;;;6.61;57.03;95234.88;4975010;28;20427;-65
2023/11/21 08:18:17;;;;;;;;;;;;;;;6.46;55.55;95237.31;4978843;28;19930;-64
2023/11/21 08:20:42;;;;;;;;;;;;;;;6.71;57.44;95234.75;4982277;28;19922;-66
2023/11/21 08:23:07;;;;;;;;;;;;;;;6.76;56.58;95243.00;4978249;28;20633;-66
2023/11/21 08:25:34;;;;;;;;;;;;;;;5.98;55.88;95243.91;4986465;28;19932;-66
2023/11/21 08:27:59;;;;;;;;;;;;;;;5.80;55.53;95243.16;4975721;28;19937;-66
2023/11/21 08:30:25;;;;;;;;;;;;;;;6.32;57.97;95247.50;4984156;28;20415;-63
2023/11/21 08:32:52;;;;;;;;;;;;;;;6.74;56.84;95243.16;4981067;28;19940;-66
2023/11/21 08:35:17;;;;;;;;;;;;;;;6.99;55.43;95240.56;4975969;28;20615;-66
2023/11/21 08:37:42;;;;;;;;;;;;;;;7.26;55.85;95245.69;4981807;28;19930;-66
2023/11/21 08:40:09;;;;;;;;;;;;;;;7.33;53.14;95249.34;4984297;28;20629;-66
2023/11/21 08:42:34;;;;;;;;;;;;;;;7.32;52.10;95252.97;4984697;28;19933;-66
2023/11/21 08:45:00;;;;;;;;;;;;;;;7.62;54.31;95255.91;4982268;28;19941;-66
2023/11/21 08:47:26;;;;;;;;;;;;;;;7.69;54.15;95258.72;4986641;28;19945;-66
2023/11/21 08:49:53;;;;;;;;;;;;;;;7.78;53.60;95251.59;4984400;28;20043;-66
2023/11/21 08:52:18;;;;;;;;;;;;;;;7.92;52.56;95258.03;4982262;28;19921;-66
2023/11/21 08:54:45;;;;;;;;;;;;;;;7.97;53.97;95258.38;4981429;28;19929;-66
2023/11/21 08:57:10;;;;;;;;;;;;;;;8.02;53.73;95258.66;4983509;28;19937;-66
2023/11/21 08:59:35;;;;;;;;;;;;;;;8.19;53.04;95261.25;4980854;28;19925;-66
2023/11/21 09:02:01;;;;;;;;;;;;;;;8.37;52.26;95266.31;4987114;28;19932;-67
2023/11/21 09:04:27;;;;;;;;;;;;;;;8.39;52.42;95276.75;4980494;28;20600;-66
2023/11/21 09:06:52;;;;;;;;;;;;;;;8.11;53.88;95271.91;4981131;28;19929;-66
2023/11/21 09:09:17;;;;;;;;;;;;;;;8.35;53.15;95276.28;4981730;28;19922;-65
2023/11/21 09:11:44;;;;;;;;;;;;;;;8.45;50.54;95278.72;4986593;28;19933;-67
2023/11/21 09:14:10;;;;;;;;;;;;;;;8.23;52.56;95281.13;4988346;28;19930;-66
2023/11/21 09:16:35;;;;;;;;;;;;;;;8.17;50.17;95281.84;4983187;28;20348;-67
2023/11/21 09:19:00;;;;;;;;;;;;;;;7.80;51.33;95292.03;4984666;28;20175;-66
2023/11/21 09:21:25;;;;;;;;;;;;;;;7.77;51.93;95293.19;4984261;28;19961;-66
2023/11/21 09:23:51;;;;;;;;;;;;;;;7.34;51.84;95292.53;4980887;28;19956;-66
2023/11/21 09:26:17;;;;;;;;;;;;;;;6.97;52.99;95298.13;4981199;28;19940;-66
2023/11/21 09:28:46;;;;;;;;;;;;;;;6.50;54.51;95302.97;4985069;28;20474;-66
2023/11/21 09:31:12;;;;;;;;;;;;;;;6.37;54.71;95310.50;4986596;28;20630;-66
2023/11/21 09:33:38;;;;;;;;;;;;;;;6.31;55.52;95313.75;4980579;28;19921;-66
2023/11/21 09:36:04;;;;;;;;;;;;;;;6.83;55.15;95312.81;4980029;28;20016;-67
2023/11/21 09:38:29;;;;;;;;;;;;;;;5.81;54.81;95321.41;4979680;28;20414;-67
2023/11/21 09:40:55;;;;;;;;;;;;;;;6.23;55.90;95317.22;4980320;28;19922;-66
2023/11/21 09:43:20;;;;;;;;;;;;;;;6.75;55.33;95326.03;4982821;28;19922;-66
2023/11/21 09:45:47;;;;;;;;;;;;;;;6.36;56.45;95332.66;4982252;28;19926;-66
2023/11/21 09:48:12;;;;;;;;;;;;;;;6.92;54.98;95337.50;4981226;28;20471;-66
2023/11/21 09:50:37;;;;;;;;;;;;;;;6.96;54.33;95344.13;4981070;28;19973;-66
2023/11/21 09:53:20;;;;;;;;;;;;;;;6.59;54.65;95346.16;4983971;28;19972;-67
2023/11/21 09:55:46;;;;;;;;;;;;;;;6.90;52.96;95344.75;4984798;28;19930;-66
2023/11/21 09:58:14;;;;;;;;;;;;;;;6.67;53.51;95347.16;4983294;28;19941;-66
2023/11/21 10:00:43;;;;;;;;;;;;;;;6.03;54.52;95353.59;4979948;28;19980;-66
2023/11/21 10:03:09;;;;;;;;;;;;;;;6.21;56.00;95353.53;4986631;28;19937;-66
2023/11/21 10:05:35;;;;;;;;;;;;;;;5.21;57.39;95353.63;4983893;28;20371;-66
2023/11/21 10:08:00;;;;;;;;;;;;;;;6.31;55.84;95348.13;4987546;28;19926;-66
2023/11/21 10:10:26;;;;;;;;;;;;;;;6.46;54.59;95343.91;4981221;28;19925;-66
2023/11/21 10:12:53;;;;;;;;;;;;;;;6.53;55.61;95351.25;4989188;28;20355;-66
2023/11/21 10:15:18;;;;;;;;;;;;;;;6.78;53.89;95349.53;4983231;28;19980;-66
2023/11/21 10:17:45;;;;;;;;;;;;;;;6.67;54.65;95355.09;4981978;28;19929;-66
2023/11/21 10:20:13;;;;;;;;;;;;;;;5.96;55.47;95351.56;4980201;28;19925;-66
2023/11/21 10:22:41;;;;;;;;;;;;;;;5.96;55.41;95351.56;4978951;28;19972;-66
2023/11/21 10:25:07;;;;;;;;;;;;;;;5.07;57.51;95360.25;4986430;28;19948;-66
2023/11/21 10:27:33;;;;;;;;;;;;;;;4.86;58.38;95360.50;4987961;28;19922;-66
2023/11/21 10:30:00;;;;;;;;;;;;;;;4.93;59.35;95356.31;4979393;28;19966;-66
2023/11/21 10:32:28;;;;;;;;;;;;;;;5.17;58.89;95359.38;4978871;28;19921;-66
2023/11/21 10:34:57;;;;;;;;;;;;;;;4.76;59.27;95365.03;4978666;28;20035;-66
2023/11/21 10:37:22;;;;;;;;;;;;;;;4.54;60.66;95369.72;4984299;28;19929;-66
2023/11/21 10:39:47;;;;;;;;;;;;;;;4.20;61.09;95376.38;4974922;28;19932;-66
2023/11/21 10:42:12;;;;;;;;;;;;;;;3.90;63.05;95370.34;4979556;28;19928;-65
2023/11/21 10:44:37;;;;;;;;;;;;;;;4.05;62.68;95365.47;4974605;28;20024;-66
2023/11/21 10:47:03;;;;;;;;;;;;;;;3.97;62.19;95373.22;4979997;28;19965;-65
2023/11/21 10:49:28;;;;;;;;;;;;;;;4.18;62.37;95365.97;4979005;28;20599;-66
2023/11/21 10:51:54;;;;;;;;;;;;;;;3.99;63.09;95366.03;4985212;28;19964;-66
2023/11/21 10:54:25;;;;;;;;;;;;;;;4.10;62.10;95363.22;4983137;28;19933;-65
2023/11/21 10:56:51;;;;;;;;;;;;;;;3.90;62.90;95371.19;4983205;28;19933;-66
2023/11/21 10:59:17;;;;;;;;;;;;;;;3.69;63.35;95366.09;4980202;28;19926;-65
2023/11/21 11:01:43;;;;;;;;;;;;;;;3.56;62.91;95374.28;4980471;28;19926;-79
2023/11/21 11:04:14;;;;;;;;;;;;;;;4.00;62.38;95380.84;4976739;28;19975;-78
2023/11/21 11:06:39;;;;;;;;;;;;;;;3.86;62.88;95369.81;4975362;28;19984;-78
2023/11/21 11:09:04;;;;;;;;;;;;;;;4.19;62.78;95377.34;4977657;28;20382;-78
2023/11/21 11:11:33;;;;;;;;;;;;;;;4.94;59.26;95372.97;4968955;28;19932;-78
2023/11/21 11:14:00;;;;;;;;;;;;;;;4.77;58.55;95382.50;4976841;28;20623;-77
2023/11/21 11:16:25;;;;;;;;;;;;;;;4.77;60.08;95371.97;4977118;28;20466;-78
2023/11/21 11:18:51;;;;;;;;;;;;;;;4.52;60.69;95382.22;4978708;28;19982;-77
2023/11/21 11:21:22;;;;;;;;;;;;;;;4.84;59.46;95376.47;4977481;28;20580;-78
2023/11/21 11:24:04;;;;;;;;;;;;;;;5.00;58.61;95379.47;4976609;28;20370;-78
2023/11/21 11:26:37;;;;;;;;;;;;;;;4.90;59.01;95379.53;4974450;28;20618;-78
2023/11/21 11:29:02;;;;;;;;;;;;;;;4.82;59.17;95377.59;4976930;28;19922;-77
2023/11/21 11:31:38;;;;;;;;;;;;;;;5.04;58.84;95371.09;4978567;28;20370;-77
2023/11/21 11:34:22;;;;;;;;;;;;;;;5.31;58.35;95369.41;4976191;28;20005;-76
2023/11/21 11:36:48;;;;;;;;;;;;;;;5.92;58.03;95365.28;4975108;28;20748;-77
2023/11/21 11:39:37;;;;;;;;;;;;;;;6.11;56.52;95369.50;4959975;28;19927;-76
2023/11/21 11:42:04;;;;;;;;;;;;;;;5.71;56.27;95383.09;4967812;28;19929;-67
2023/11/21 11:44:45;;;;;;;;;;;;;;;5.35;58.26;95383.94;4973288;28;19972;-66
2023/11/21 11:47:19;;;;;;;;;;;;;;;4.99;59.02;95394.44;4985080;28;19969;-67
2023/11/21 11:50:06;;;;;;;;;;;;;;;4.66;59.85;95394.91;4981903;28;20712;-66
2023/11/21 11:52:32;;;;;;;;;;;;;;;4.34;61.32;95396.16;4980622;28;20434;-67
2023/11/21 11:54:59;;;;;;;;;;;;;;;4.73;61.47;95397.78;4980155;28;20016;-66
2023/11/21 11:57:24;;;;;;;;;;;;;;;4.56;61.28;95394.94;4985498;28;19933;-67
2023/11/21 12:00:24;;;;;;;;;;;;;;;4.70;60.88;95391.00;4981399;28;20385;-67
2023/11/21 12:02:57;;;;;;;;;;;;;;;4.73;61.03;95383.78;4957795;28;19930;-67
2023/11/21 12:05:23;;;;;;;;;;;;;;;5.12;60.23;95386.22;4980562;28;19925;-67
2023/11/21 12:07:48;;;;;;;;;;;;;;;4.80;60.37;95385.66;4979844;28;19925;-64
2023/11/21 12:10:17;;;;;;;;;;;;;;;4.55;60.53;95389.81;4981326;28;19926;-65
2023/11/21 12:12:46;;;;;;;;;;;;;;;4.68;60.40;95392.97;4984207;28;19925;-65
2023/11/21 12:15:12;;;;;;;;;;;;;;;4.70;60.89;95384.91;4981066;28;19930;-65
2023/11/21 12:17:38;;;;;;;;;;;;;;;4.87;60.10;95395.66;4976107;28;19936;-65
2023/11/21 12:20:05;;;;;;;;;;;;;;;4.83;62.07;95405.66;4979685;28;19921;-65
2023/11/21 12:22:30;;;;;;;;;;;;;;;4.51;60.80;95397.19;4986126;28;19925;-65
2023/11/21 12:24:56;;;;;;;;;;;;;;;4.29;62.68;95406.31;4983822;28;19965;-65
2023/11/21 12:27:21;;;;;;;;;;;;;;;4.47;61.75;95406.38;4979182;28;20142;-65
2023/11/21 12:29:46;;;;;;;;;;;;;;;4.06;62.05;95404.00;4981958;28;20011;-65
2023/11/21 12:32:11;;;;;;;;;;;;;;;4.27;63.06;95411.72;4978423;28;20003;-65
2023/11/21 12:34:38;;;;;;;;;;;;;;;4.31;62.42;95409.63;4979467;28;20769;-65
2023/11/21 12:37:04;;;;;;;;;;;;;;;4.25;62.37;95411.00;4981867;28;20028;-65
2023/11/21 12:39:29;;;;;;;;;;;;;;;4.10;62.65;95407.16;4979423;28;20024;-65
2023/11/21 12:41:54;;;;;;;;;;;;;;;3.77;63.37;95408.34;4982232;28;19930;-65
2023/11/21 12:44:19;;;;;;;;;;;;;;;4.07;63.21;95409.13;4980754;28;20012;-65
2023/11/21 12:46:45;;;;;;;;;;;;;;;4.16;63.14;95414.53;4978624;28;19980;-65
2023/11/21 12:49:17;;;;;;;;;;;;;;;3.80;63.77;95409.84;4982687;28;19972;-65
2023/11/21 12:51:42;;;;;;;;;;;;;;;3.89;63.17;95418.72;4978388;28;20558;-65